Skip Navigation LinksHome page > Weather > Current weather Skip Navigation Links

Current Weather

Dorval Intl. Apt., Montréal, P.Q.

For information only: do not use for flight planning or navigation.
Latest weather
Observation time Tuesday, September 28, 2021 7:00 AM EDT
Local time Tuesday, September 28, 2021 7:37 AM EDT
Flight conditions Visual Meteorological Conditions
Winds
Wind direction Northwest (320°)
Wind speed 5 mph
Visibility 15 mi.
Sky condition
Ceiling 25,000 ft. broken clouds
Cloud layer broken clouds 25,000 ft.
Temperature 45°F
Dewpoint 43°F
Altimeter 29.88 in.Hg
Derived measurements
Relative humidity 93%
Wind chill 42°F
Density altitude -662 ft.
Sea-level pressure 29.88 in.Hg
METAR CYUL 281100Z 32004KT 15SM BKN250 07/06 A2988 RMK CI7 SLP120

Settings

Location code

InnerDrive.Weather 4.0.6770.0 Release CLR 4.0.30319.42000
Copyright ©2018 Inner Drive Technology. All rights reserved. Portions Copyright ©1986-2018 David Braverman.

Find weather

Site navigation


Skip Navigation Links

Place info

Page info

PayPal - The safer, easier way to pay online!

Return home.

Copyright ©2021 Inner Drive Technology. Purveyors of fine, hand-crafted computer software. Page printed 2021-09-28T11:37:23 UTC.